This is the latest recevied weather packets stored in our database for station/object OK2ZAW-21. If no packets are shown the sender has not sent any weather packets the latest 10 day(s).
| Time | Temp. | Humidity | Pressure | Rain* | Wind** | Luminosity | Snow |
|---|---|---|---|---|---|---|---|
| 1788523993 | 23.89° C | 68% | 1019.3 hPa | - | - | 425 W/m² | - |
| 1788523681 | 24.44° C | 68% | 1019.5 hPa | - | - | 425 W/m² | - |
| 1788523369 | 23.89° C | 68% | 1019.4 hPa | - | - | 425 W/m² | - |
| 1788523057 | 23.89° C | 70% | 1019.6 hPa | - | - | 425 W/m² | - |
| 1788522745 | 23.89° C | 70% | 1019.7 hPa | - | - | 425 W/m² | - |
| 1788522434 | 23.89° C | 70% | 1019.8 hPa | - | - | 425 W/m² | - |
| 1788522141 | 22.78° C | 72% | 1019.7 hPa | - | - | 425 W/m² | - |
| 1788521810 | 23.89° C | 70% | 1019.9 hPa | - | - | 425 W/m² | - |
| 1788521498 | 24.44° C | 68% | 1020 hPa | - | - | 426 W/m² | - |
| 1788521187 | 23.89° C | 69% | 1019.9 hPa | - | - | 425 W/m² | - |
| 1788520875 | 23.33° C | 74% | 1019.7 hPa | - | - | 426 W/m² | - |
| 1788520563 | 23.33° C | 74% | 1020.2 hPa | - | - | 426 W/m² | - |
| 1788520251 | 23.33° C | 74% | 1020.2 hPa | - | - | 426 W/m² | - |
| 1788519940 | 22.78° C | 76% | 1020.1 hPa | - | - | 426 W/m² | - |
| 1788519628 | 22.78° C | 75% | 1020.1 hPa | - | - | 426 W/m² | - |
| 1788519316 | 22.78° C | 73% | 1019.8 hPa | - | - | 426 W/m² | - |
| 1788519005 | 23.89° C | 70% | 1020 hPa | - | - | 427 W/m² | - |
| 1788518693 | 23.33° C | 72% | 1020.1 hPa | - | - | 427 W/m² | - |
| 1788518381 | 22.78° C | 78% | 1020.1 hPa | - | - | 427 W/m² | - |
| 1788518070 | 22.22° C | 84% | 1020.4 hPa | - | - | 427 W/m² | - |
| 1788517758 | 22.22° C | 84% | 1020.5 hPa | - | - | 427 W/m² | - |
| 1788517447 | 22.22° C | 83% | 1020.4 hPa | - | - | 427 W/m² | - |
| 1788517135 | 22.22° C | 81% | 1020.3 hPa | - | - | 427 W/m² | - |
| 1788516824 | 22.22° C | 84% | 1020.5 hPa | - | - | 426 W/m² | - |
| 1788516512 | 22.22° C | 83% | 1020.5 hPa | - | - | 426 W/m² | - |
* Rain since midnight (hover to see other rain measurements)
** Current wind speed in m/s (hover to see current wind gust speed)